sensor_id;sensor_type;location;lat;lon;timestamp;P1;durP1;ratioP1;P2;durP2;ratioP2
71767;SDS011;59604;52.138;5.446;2023-02-28T00:00:46;9.15;;;3.50;;
71767;SDS011;59604;52.138;5.446;2023-02-28T00:03:12;9.63;;;3.20;;
71767;SDS011;59604;52.138;5.446;2023-02-28T00:05:39;10.77;;;4.53;;
71767;SDS011;59604;52.138;5.446;2023-02-28T00:08:06;11.48;;;4.35;;
71767;SDS011;59604;52.138;5.446;2023-02-28T00:10:33;9.40;;;3.50;;
71767;SDS011;59604;52.138;5.446;2023-02-28T00:13:02;13.02;;;3.47;;
71767;SDS011;59604;52.138;5.446;2023-02-28T00:15:31;7.25;;;3.03;;
71767;SDS011;59604;52.138;5.446;2023-02-28T00:17:58;8.95;;;3.22;;
71767;SDS011;59604;52.138;5.446;2023-02-28T00:20:25;8.40;;;2.60;;
71767;SDS011;59604;52.138;5.446;2023-02-28T00:22:53;8.05;;;3.10;;
71767;SDS011;59604;52.138;5.446;2023-02-28T00:25:21;9.38;;;3.08;;
71767;SDS011;59604;52.138;5.446;2023-02-28T00:27:49;8.40;;;3.15;;
71767;SDS011;59604;52.138;5.446;2023-02-28T00:30:18;7.88;;;2.83;;
71767;SDS011;59604;52.138;5.446;2023-02-28T00:32:46;8.57;;;3.08;;
71767;SDS011;59604;52.138;5.446;2023-02-28T00:35:13;8.30;;;2.72;;
71767;SDS011;59604;52.138;5.446;2023-02-28T00:37:40;8.25;;;3.03;;
71767;SDS011;59604;52.138;5.446;2023-02-28T00:40:07;6.38;;;2.70;;
71767;SDS011;59604;52.138;5.446;2023-02-28T00:42:35;6.93;;;2.88;;
71767;SDS011;59604;52.138;5.446;2023-02-28T00:45:02;8.73;;;2.80;;
71767;SDS011;59604;52.138;5.446;2023-02-28T00:47:32;7.20;;;2.70;;
71767;SDS011;59604;52.138;5.446;2023-02-28T00:49:59;7.20;;;2.80;;
71767;SDS011;59604;52.138;5.446;2023-02-28T00:52:26;6.78;;;2.47;;
71767;SDS011;59604;52.138;5.446;2023-02-28T00:54:53;8.63;;;2.92;;
71767;SDS011;59604;52.138;5.446;2023-02-28T00:57:19;6.55;;;2.83;;
71767;SDS011;59604;52.138;5.446;2023-02-28T00:59:46;5.78;;;2.55;;
71767;SDS011;59604;52.138;5.446;2023-02-28T01:02:13;7.53;;;2.72;;
71767;SDS011;59604;52.138;5.446;2023-02-28T01:04:40;7.50;;;2.65;;
71767;SDS011;59604;52.138;5.446;2023-02-28T01:07:06;5.93;;;2.53;;
71767;SDS011;59604;52.138;5.446;2023-02-28T01:09:33;7.20;;;2.65;;
71767;SDS011;59604;52.138;5.446;2023-02-28T01:11:59;6.82;;;2.55;;
71767;SDS011;59604;52.138;5.446;2023-02-28T01:14:26;6.22;;;2.67;;
71767;SDS011;59604;52.138;5.446;2023-02-28T01:16:52;7.97;;;2.53;;
71767;SDS011;59604;52.138;5.446;2023-02-28T01:19:19;7.88;;;2.35;;
71767;SDS011;59604;52.138;5.446;2023-02-28T01:21:45;8.45;;;2.58;;
71767;SDS011;59604;52.138;5.446;2023-02-28T01:24:12;8.35;;;2.85;;
71767;SDS011;59604;52.138;5.446;2023-02-28T01:26:38;6.07;;;2.50;;
71767;SDS011;59604;52.138;5.446;2023-02-28T01:29:05;7.40;;;2.65;;
71767;SDS011;59604;52.138;5.446;2023-02-28T01:31:32;6.93;;;2.40;;
71767;SDS011;59604;52.138;5.446;2023-02-28T01:33:58;6.57;;;2.40;;
71767;SDS011;59604;52.138;5.446;2023-02-28T01:36:25;6.88;;;2.42;;
71767;SDS011;59604;52.138;5.446;2023-02-28T01:38:52;8.80;;;2.60;;
71767;SDS011;59604;52.138;5.446;2023-02-28T01:41:21;7.95;;;2.65;;
71767;SDS011;59604;52.138;5.446;2023-02-28T01:46:19;6.22;;;2.58;;
71767;SDS011;59604;52.138;5.446;2023-02-28T01:48:53;6.68;;;2.60;;
71767;SDS011;59604;52.138;5.446;2023-02-28T01:51:28;6.38;;;2.35;;
71767;SDS011;59604;52.138;5.446;2023-02-28T01:54:05;7.20;;;2.53;;
71767;SDS011;59604;52.138;5.446;2023-02-28T01:56:41;6.10;;;2.65;;
71767;SDS011;59604;52.138;5.446;2023-02-28T01:59:18;8.35;;;2.70;;
71767;SDS011;59604;52.138;5.446;2023-02-28T02:01:50;7.18;;;2.80;;
71767;SDS011;59604;52.138;5.446;2023-02-28T02:04:17;6.68;;;3.05;;
71767;SDS011;59604;52.138;5.446;2023-02-28T02:06:45;6.35;;;2.67;;
71767;SDS011;59604;52.138;5.446;2023-02-28T02:09:14;7.40;;;2.65;;
71767;SDS011;59604;52.138;5.446;2023-02-28T02:11:40;7.50;;;2.67;;
71767;SDS011;59604;52.138;5.446;2023-02-28T02:17:04;7.95;;;2.60;;
71767;SDS011;59604;52.138;5.446;2023-02-28T02:27:49;7.15;;;2.55;;
71767;SDS011;59604;52.138;5.446;2023-02-28T02:36:51;8.32;;;2.63;;
71767;SDS011;59604;52.138;5.446;2023-02-28T02:42:18;8.35;;;2.67;;
71767;SDS011;59604;52.138;5.446;2023-02-28T02:45:00;8.98;;;3.00;;
71767;SDS011;59604;52.138;5.446;2023-02-28T02:47:31;10.00;;;3.10;;
71767;SDS011;59604;52.138;5.446;2023-02-28T02:50:00;7.97;;;3.00;;
71767;SDS011;59604;52.138;5.446;2023-02-28T02:52:41;7.88;;;2.92;;
71767;SDS011;59604;52.138;5.446;2023-02-28T02:55:12;9.70;;;2.85;;
71767;SDS011;59604;52.138;5.446;2023-02-28T03:00:39;8.70;;;2.90;;
71767;SDS011;59604;52.138;5.446;2023-02-28T03:03:09;8.30;;;2.72;;
71767;SDS011;59604;52.138;5.446;2023-02-28T03:05:46;9.60;;;3.38;;
71767;SDS011;59604;52.138;5.446;2023-02-28T03:08:15;7.10;;;2.80;;
71767;SDS011;59604;52.138;5.446;2023-02-28T03:10:43;9.82;;;3.20;;
71767;SDS011;59604;52.138;5.446;2023-02-28T03:20:07;8.60;;;2.90;;
71767;SDS011;59604;52.138;5.446;2023-02-28T03:28:19;7.03;;;3.28;;
71767;SDS011;59604;52.138;5.446;2023-02-28T03:31:00;8.60;;;2.88;;
71767;SDS011;59604;52.138;5.446;2023-02-28T03:36:26;10.30;;;2.95;;
71767;SDS011;59604;52.138;5.446;2023-02-28T03:38:59;8.77;;;2.85;;
71767;SDS011;59604;52.138;5.446;2023-02-28T03:44:41;9.35;;;3.33;;
71767;SDS011;59604;52.138;5.446;2023-02-28T03:47:19;7.35;;;3.22;;
71767;SDS011;59604;52.138;5.446;2023-02-28T03:49:56;8.93;;;3.33;;
71767;SDS011;59604;52.138;5.446;2023-02-28T03:52:27;7.20;;;3.00;;
71767;SDS011;59604;52.138;5.446;2023-02-28T03:55:00;9.07;;;3.28;;
71767;SDS011;59604;52.138;5.446;2023-02-28T04:00:18;8.40;;;3.40;;
71767;SDS011;59604;52.138;5.446;2023-02-28T04:02:48;9.60;;;3.30;;
71767;SDS011;59604;52.138;5.446;2023-02-28T04:05:21;7.03;;;3.20;;
71767;SDS011;59604;52.138;5.446;2023-02-28T04:07:48;8.38;;;3.50;;
71767;SDS011;59604;52.138;5.446;2023-02-28T04:10:15;11.70;;;3.13;;
71767;SDS011;59604;52.138;5.446;2023-02-28T04:12:43;8.65;;;3.10;;
71767;SDS011;59604;52.138;5.446;2023-02-28T04:15:09;8.15;;;3.17;;
71767;SDS011;59604;52.138;5.446;2023-02-28T04:17:37;6.53;;;2.88;;
71767;SDS011;59604;52.138;5.446;2023-02-28T04:20:04;6.32;;;3.08;;
71767;SDS011;59604;52.138;5.446;2023-02-28T04:22:35;8.57;;;3.20;;
71767;SDS011;59604;52.138;5.446;2023-02-28T04:25:03;6.88;;;2.53;;
71767;SDS011;59604;52.138;5.446;2023-02-28T04:27:30;7.07;;;2.72;;
71767;SDS011;59604;52.138;5.446;2023-02-28T04:29:57;7.38;;;2.80;;
71767;SDS011;59604;52.138;5.446;2023-02-28T04:32:24;7.95;;;2.63;;
71767;SDS011;59604;52.138;5.446;2023-02-28T04:34:51;7.10;;;2.83;;
71767;SDS011;59604;52.138;5.446;2023-02-28T04:37:17;8.90;;;2.80;;
71767;SDS011;59604;52.138;5.446;2023-02-28T04:39:44;8.45;;;2.97;;
71767;SDS011;59604;52.138;5.446;2023-02-28T04:42:11;8.68;;;2.70;;
71767;SDS011;59604;52.138;5.446;2023-02-28T04:44:38;6.20;;;2.88;;
71767;SDS011;59604;52.138;5.446;2023-02-28T04:47:05;6.25;;;2.80;;
71767;SDS011;59604;52.138;5.446;2023-02-28T04:49:32;7.38;;;2.90;;
71767;SDS011;59604;52.138;5.446;2023-02-28T04:51:58;6.68;;;2.47;;
71767;SDS011;59604;52.138;5.446;2023-02-28T04:54:26;8.60;;;2.70;;
71767;SDS011;59604;52.138;5.446;2023-02-28T04:56:54;8.15;;;2.85;;
71767;SDS011;59604;52.138;5.446;2023-02-28T04:59:21;7.00;;;2.60;;
71767;SDS011;59604;52.138;5.446;2023-02-28T05:01:48;7.85;;;2.28;;
71767;SDS011;59604;52.138;5.446;2023-02-28T05:04:15;6.65;;;2.63;;
71767;SDS011;59604;52.138;5.446;2023-02-28T05:06:42;5.65;;;2.35;;
71767;SDS011;59604;52.138;5.446;2023-02-28T05:09:09;6.78;;;2.28;;
71767;SDS011;59604;52.138;5.446;2023-02-28T05:11:38;5.95;;;2.30;;
71767;SDS011;59604;52.138;5.446;2023-02-28T05:14:08;6.57;;;2.53;;
71767;SDS011;59604;52.138;5.446;2023-02-28T05:16:37;9.07;;;2.53;;
71767;SDS011;59604;52.138;5.446;2023-02-28T05:19:04;7.85;;;2.40;;
71767;SDS011;59604;52.138;5.446;2023-02-28T05:24:03;6.18;;;2.22;;
71767;SDS011;59604;52.138;5.446;2023-02-28T05:26:34;5.25;;;2.45;;
71767;SDS011;59604;52.138;5.446;2023-02-28T05:29:02;5.63;;;2.35;;
71767;SDS011;59604;52.138;5.446;2023-02-28T05:31:28;5.75;;;2.25;;
71767;SDS011;59604;52.138;5.446;2023-02-28T05:33:56;7.72;;;2.70;;
71767;SDS011;59604;52.138;5.446;2023-02-28T05:36:22;8.15;;;3.10;;
71767;SDS011;59604;52.138;5.446;2023-02-28T05:38:49;7.28;;;2.40;;
71767;SDS011;59604;52.138;5.446;2023-02-28T05:41:17;7.70;;;2.50;;
71767;SDS011;59604;52.138;5.446;2023-02-28T05:43:45;7.18;;;2.72;;
71767;SDS011;59604;52.138;5.446;2023-02-28T05:46:12;6.97;;;2.75;;
71767;SDS011;59604;52.138;5.446;2023-02-28T05:48:41;11.18;;;2.60;;
71767;SDS011;59604;52.138;5.446;2023-02-28T05:51:09;8.43;;;2.90;;
71767;SDS011;59604;52.138;5.446;2023-02-28T05:53:35;5.95;;;2.65;;
71767;SDS011;59604;52.138;5.446;2023-02-28T05:56:02;8.07;;;2.67;;
71767;SDS011;59604;52.138;5.446;2023-02-28T05:58:29;6.55;;;2.60;;
71767;SDS011;59604;52.138;5.446;2023-02-28T06:01:00;6.70;;;2.85;;
71767;SDS011;59604;52.138;5.446;2023-02-28T06:03:46;6.45;;;2.47;;
71767;SDS011;59604;52.138;5.446;2023-02-28T06:06:12;6.68;;;2.80;;
71767;SDS011;59604;52.138;5.446;2023-02-28T06:08:39;6.45;;;2.80;;
71767;SDS011;59604;52.138;5.446;2023-02-28T06:11:06;6.38;;;2.70;;
71767;SDS011;59604;52.138;5.446;2023-02-28T06:13:33;6.35;;;2.63;;
71767;SDS011;59604;52.138;5.446;2023-02-28T06:16:02;6.45;;;2.63;;
71767;SDS011;59604;52.138;5.446;2023-02-28T06:18:29;7.05;;;3.22;;
71767;SDS011;59604;52.138;5.446;2023-02-28T06:20:55;6.75;;;2.83;;
71767;SDS011;59604;52.138;5.446;2023-02-28T06:23:22;9.63;;;2.88;;
71767;SDS011;59604;52.138;5.446;2023-02-28T06:25:49;8.30;;;2.92;;
71767;SDS011;59604;52.138;5.446;2023-02-28T06:28:15;6.95;;;2.83;;
71767;SDS011;59604;52.138;5.446;2023-02-28T06:30:42;7.70;;;2.90;;
71767;SDS011;59604;52.138;5.446;2023-02-28T06:33:11;8.43;;;3.00;;
71767;SDS011;59604;52.138;5.446;2023-02-28T06:35:38;7.13;;;2.92;;
71767;SDS011;59604;52.138;5.446;2023-02-28T06:38:05;9.90;;;2.97;;
71767;SDS011;59604;52.138;5.446;2023-02-28T06:40:31;6.88;;;3.00;;
71767;SDS011;59604;52.138;5.446;2023-02-28T06:43:01;6.95;;;3.30;;
71767;SDS011;59604;52.138;5.446;2023-02-28T06:45:28;8.93;;;3.50;;
71767;SDS011;59604;52.138;5.446;2023-02-28T06:47:55;8.45;;;2.95;;
71767;SDS011;59604;52.138;5.446;2023-02-28T06:50:22;7.90;;;3.20;;
71767;SDS011;59604;52.138;5.446;2023-02-28T06:52:48;8.45;;;3.05;;
71767;SDS011;59604;52.138;5.446;2023-02-28T06:55:20;7.05;;;3.00;;
71767;SDS011;59604;52.138;5.446;2023-02-28T06:57:46;8.75;;;3.58;;
71767;SDS011;59604;52.138;5.446;2023-02-28T07:00:13;8.15;;;3.22;;
71767;SDS011;59604;52.138;5.446;2023-02-28T07:02:40;8.00;;;3.20;;
71767;SDS011;59604;52.138;5.446;2023-02-28T07:05:07;7.25;;;3.00;;
71767;SDS011;59604;52.138;5.446;2023-02-28T07:07:34;7.45;;;3.03;;
71767;SDS011;59604;52.138;5.446;2023-02-28T07:10:02;9.02;;;3.47;;
71767;SDS011;59604;52.138;5.446;2023-02-28T07:12:29;7.65;;;3.22;;
71767;SDS011;59604;52.138;5.446;2023-02-28T07:14:55;6.68;;;2.90;;
71767;SDS011;59604;52.138;5.446;2023-02-28T07:17:22;7.93;;;3.65;;
71767;SDS011;59604;52.138;5.446;2023-02-28T07:19:49;7.50;;;3.40;;
71767;SDS011;59604;52.138;5.446;2023-02-28T07:22:16;9.25;;;3.42;;
71767;SDS011;59604;52.138;5.446;2023-02-28T07:24:42;9.95;;;3.75;;
71767;SDS011;59604;52.138;5.446;2023-02-28T07:27:09;10.20;;;3.67;;
71767;SDS011;59604;52.138;5.446;2023-02-28T07:29:36;9.57;;;3.63;;
71767;SDS011;59604;52.138;5.446;2023-02-28T07:32:03;8.90;;;3.55;;
71767;SDS011;59604;52.138;5.446;2023-02-28T07:34:30;8.13;;;3.80;;
71767;SDS011;59604;52.138;5.446;2023-02-28T07:36:56;8.15;;;3.53;;
71767;SDS011;59604;52.138;5.446;2023-02-28T07:39:23;7.53;;;3.55;;
71767;SDS011;59604;52.138;5.446;2023-02-28T07:41:50;9.40;;;3.42;;
71767;SDS011;59604;52.138;5.446;2023-02-28T07:44:16;8.13;;;3.60;;
71767;SDS011;59604;52.138;5.446;2023-02-28T07:46:43;7.32;;;3.55;;
71767;SDS011;59604;52.138;5.446;2023-02-28T07:49:09;9.80;;;4.15;;
71767;SDS011;59604;52.138;5.446;2023-02-28T07:51:36;11.00;;;4.90;;
71767;SDS011;59604;52.138;5.446;2023-02-28T07:54:03;9.30;;;4.55;;
71767;SDS011;59604;52.138;5.446;2023-02-28T07:56:30;8.32;;;4.22;;
71767;SDS011;59604;52.138;5.446;2023-02-28T07:58:57;9.77;;;4.40;;
71767;SDS011;59604;52.138;5.446;2023-02-28T08:01:23;9.10;;;4.03;;
71767;SDS011;59604;52.138;5.446;2023-02-28T08:03:50;10.43;;;4.25;;
71767;SDS011;59604;52.138;5.446;2023-02-28T08:06:18;10.95;;;4.40;;
71767;SDS011;59604;52.138;5.446;2023-02-28T08:08:46;9.80;;;4.35;;
71767;SDS011;59604;52.138;5.446;2023-02-28T08:11:13;8.40;;;3.90;;
71767;SDS011;59604;52.138;5.446;2023-02-28T08:13:40;8.73;;;3.60;;
71767;SDS011;59604;52.138;5.446;2023-02-28T08:16:10;8.77;;;4.43;;
71767;SDS011;59604;52.138;5.446;2023-02-28T08:18:38;8.77;;;4.05;;
71767;SDS011;59604;52.138;5.446;2023-02-28T08:21:10;10.75;;;4.00;;
71767;SDS011;59604;52.138;5.446;2023-02-28T08:23:38;8.93;;;3.70;;
71767;SDS011;59604;52.138;5.446;2023-02-28T08:26:05;8.60;;;4.00;;
71767;SDS011;59604;52.138;5.446;2023-02-28T08:28:32;10.20;;;3.78;;
71767;SDS011;59604;52.138;5.446;2023-02-28T08:30:59;8.55;;;3.75;;
71767;SDS011;59604;52.138;5.446;2023-02-28T08:33:26;8.73;;;3.67;;
71767;SDS011;59604;52.138;5.446;2023-02-28T08:35:54;7.57;;;3.55;;
71767;SDS011;59604;52.138;5.446;2023-02-28T08:38:22;7.95;;;3.67;;
71767;SDS011;59604;52.138;5.446;2023-02-28T08:40:50;7.35;;;3.85;;
71767;SDS011;59604;52.138;5.446;2023-02-28T08:43:23;8.73;;;3.40;;
71767;SDS011;59604;52.138;5.446;2023-02-28T08:45:52;10.10;;;3.53;;
71767;SDS011;59604;52.138;5.446;2023-02-28T08:48:20;6.72;;;3.05;;
71767;SDS011;59604;52.138;5.446;2023-02-28T08:51:00;7.43;;;2.90;;
71767;SDS011;59604;52.138;5.446;2023-02-28T08:53:33;7.43;;;3.17;;
71767;SDS011;59604;52.138;5.446;2023-02-28T08:56:04;6.32;;;2.80;;
71767;SDS011;59604;52.138;5.446;2023-02-28T08:58:34;6.32;;;2.67;;
71767;SDS011;59604;52.138;5.446;2023-02-28T09:01:06;7.28;;;2.88;;
71767;SDS011;59604;52.138;5.446;2023-02-28T09:03:38;6.90;;;2.72;;
71767;SDS011;59604;52.138;5.446;2023-02-28T09:06:05;5.93;;;2.55;;
71767;SDS011;59604;52.138;5.446;2023-02-28T09:08:31;6.90;;;2.80;;
71767;SDS011;59604;52.138;5.446;2023-02-28T09:10:58;6.15;;;2.50;;
71767;SDS011;59604;52.138;5.446;2023-02-28T09:13:28;4.78;;;2.30;;
71767;SDS011;59604;52.138;5.446;2023-02-28T09:15:59;7.18;;;2.25;;
71767;SDS011;59604;52.138;5.446;2023-02-28T09:18:27;5.43;;;2.10;;
71767;SDS011;59604;52.138;5.446;2023-02-28T09:20:54;5.82;;;2.20;;
71767;SDS011;59604;52.138;5.446;2023-02-28T09:23:21;4.00;;;1.70;;
71767;SDS011;59604;52.138;5.446;2023-02-28T09:25:48;4.97;;;1.90;;
71767;SDS011;59604;52.138;5.446;2023-02-28T09:28:19;4.70;;;1.73;;
71767;SDS011;59604;52.138;5.446;2023-02-28T09:30:48;6.28;;;1.90;;
71767;SDS011;59604;52.138;5.446;2023-02-28T09:33:17;5.38;;;1.88;;
71767;SDS011;59604;52.138;5.446;2023-02-28T09:35:47;4.80;;;1.70;;
71767;SDS011;59604;52.138;5.446;2023-02-28T09:38:14;4.07;;;1.75;;
71767;SDS011;59604;52.138;5.446;2023-02-28T09:40:49;4.32;;;1.85;;
71767;SDS011;59604;52.138;5.446;2023-02-28T09:43:19;6.93;;;1.77;;
71767;SDS011;59604;52.138;5.446;2023-02-28T09:45:54;3.80;;;1.40;;
71767;SDS011;59604;52.138;5.446;2023-02-28T09:48:28;5.57;;;1.80;;
71767;SDS011;59604;52.138;5.446;2023-02-28T09:51:05;4.38;;;1.75;;
71767;SDS011;59604;52.138;5.446;2023-02-28T09:53:49;5.18;;;1.75;;
71767;SDS011;59604;52.138;5.446;2023-02-28T09:56:27;5.10;;;1.95;;
71767;SDS011;59604;52.138;5.446;2023-02-28T10:01:57;4.53;;;2.05;;
71767;SDS011;59604;52.138;5.446;2023-02-28T10:04:48;4.38;;;2.00;;
71767;SDS011;59604;52.138;5.446;2023-02-28T10:07:37;4.40;;;1.70;;
71767;SDS011;59604;52.138;5.446;2023-02-28T10:13:06;4.30;;;1.90;;
71767;SDS011;59604;52.138;5.446;2023-02-28T10:15:41;5.32;;;1.83;;
71767;SDS011;59604;52.138;5.446;2023-02-28T10:18:11;4.00;;;1.70;;
71767;SDS011;59604;52.138;5.446;2023-02-28T10:20:45;4.68;;;1.70;;
71767;SDS011;59604;52.138;5.446;2023-02-28T10:23:25;4.97;;;1.70;;
71767;SDS011;59604;52.138;5.446;2023-02-28T10:26:03;4.38;;;1.70;;
71767;SDS011;59604;52.138;5.446;2023-02-28T10:28:37;4.20;;;1.80;;
71767;SDS011;59604;52.138;5.446;2023-02-28T10:31:05;4.20;;;1.85;;
71767;SDS011;59604;52.138;5.446;2023-02-28T10:33:40;4.97;;;1.92;;
71767;SDS011;59604;52.138;5.446;2023-02-28T10:36:08;3.88;;;1.55;;
71767;SDS011;59604;52.138;5.446;2023-02-28T10:38:40;5.30;;;1.73;;
71767;SDS011;59604;52.138;5.446;2023-02-28T10:41:11;4.25;;;1.55;;
71767;SDS011;59604;52.138;5.446;2023-02-28T10:44:12;4.70;;;1.73;;
71767;SDS011;59604;52.138;5.446;2023-02-28T10:46:41;5.07;;;1.77;;
71767;SDS011;59604;52.138;5.446;2023-02-28T10:49:13;4.13;;;1.52;;
71767;SDS011;59604;52.138;5.446;2023-02-28T10:51:47;4.82;;;1.90;;
71767;SDS011;59604;52.138;5.446;2023-02-28T10:54:31;4.22;;;1.67;;
71767;SDS011;59604;52.138;5.446;2023-02-28T10:57:09;4.40;;;1.83;;
71767;SDS011;59604;52.138;5.446;2023-02-28T10:59:44;4.57;;;1.83;;
71767;SDS011;59604;52.138;5.446;2023-02-28T11:02:28;4.82;;;1.83;;
71767;SDS011;59604;52.138;5.446;2023-02-28T11:04:59;5.15;;;1.77;;
71767;SDS011;59604;52.138;5.446;2023-02-28T11:07:26;6.55;;;2.05;;
71767;SDS011;59604;52.138;5.446;2023-02-28T11:10:06;5.32;;;1.70;;
71767;SDS011;59604;52.138;5.446;2023-02-28T11:12:38;4.43;;;1.88;;
71767;SDS011;59604;52.138;5.446;2023-02-28T11:20:24;4.68;;;1.70;;
71767;SDS011;59604;52.138;5.446;2023-02-28T11:22:53;4.43;;;1.85;;
71767;SDS011;59604;52.138;5.446;2023-02-28T11:25:22;4.53;;;1.85;;
71767;SDS011;59604;52.138;5.446;2023-02-28T11:28:03;5.20;;;1.90;;
71767;SDS011;59604;52.138;5.446;2023-02-28T11:30:37;4.50;;;1.77;;
71767;SDS011;59604;52.138;5.446;2023-02-28T11:33:19;4.35;;;1.95;;
71767;SDS011;59604;52.138;5.446;2023-02-28T11:35:47;5.00;;;2.10;;
71767;SDS011;59604;52.138;5.446;2023-02-28T11:38:16;4.60;;;1.88;;
71767;SDS011;59604;52.138;5.446;2023-02-28T11:43:25;4.93;;;1.73;;
71767;SDS011;59604;52.138;5.446;2023-02-28T11:46:24;6.35;;;1.90;;
71767;SDS011;59604;52.138;5.446;2023-02-28T11:52:06;4.00;;;1.52;;
71767;SDS011;59604;52.138;5.446;2023-02-28T11:57:20;4.50;;;1.75;;
71767;SDS011;59604;52.138;5.446;2023-02-28T12:00:11;4.32;;;1.90;;
71767;SDS011;59604;52.138;5.446;2023-02-28T12:08:02;4.47;;;1.80;;
71767;SDS011;59604;52.138;5.446;2023-02-28T12:13:24;4.20;;;1.70;;
71767;SDS011;59604;52.138;5.446;2023-02-28T12:29:04;5.07;;;2.00;;
71767;SDS011;59604;52.138;5.446;2023-02-28T12:31:40;4.90;;;1.75;;
71767;SDS011;59604;52.138;5.446;2023-02-28T12:34:15;4.25;;;1.60;;
71767;SDS011;59604;52.138;5.446;2023-02-28T12:36:47;3.85;;;1.42;;
71767;SDS011;59604;52.138;5.446;2023-02-28T12:39:29;6.10;;;1.85;;
71767;SDS011;59604;52.138;5.446;2023-02-28T12:42:26;6.13;;;1.80;;
71767;SDS011;59604;52.138;5.446;2023-02-28T12:47:50;4.43;;;1.90;;
71767;SDS011;59604;52.138;5.446;2023-02-28T12:50:22;5.00;;;1.90;;
71767;SDS011;59604;52.138;5.446;2023-02-28T12:55:42;4.70;;;1.67;;
71767;SDS011;59604;52.138;5.446;2023-02-28T12:58:58;4.50;;;1.90;;
71767;SDS011;59604;52.138;5.446;2023-02-28T13:06:57;5.25;;;1.83;;
71767;SDS011;59604;52.138;5.446;2023-02-28T13:09:34;5.30;;;2.05;;
71767;SDS011;59604;52.138;5.446;2023-02-28T13:12:01;4.55;;;1.80;;
71767;SDS011;59604;52.138;5.446;2023-02-28T13:14:39;5.35;;;2.15;;
71767;SDS011;59604;52.138;5.446;2023-02-28T13:19:34;4.90;;;2.00;;
71767;SDS011;59604;52.138;5.446;2023-02-28T13:22:03;5.78;;;2.00;;
71767;SDS011;59604;52.138;5.446;2023-02-28T13:24:44;5.07;;;2.00;;
71767;SDS011;59604;52.138;5.446;2023-02-28T13:29:42;5.05;;;2.03;;
71767;SDS011;59604;52.138;5.446;2023-02-28T13:34:38;5.65;;;1.95;;
71767;SDS011;59604;52.138;5.446;2023-02-28T13:55:45;4.97;;;2.17;;
71767;SDS011;59604;52.138;5.446;2023-02-28T14:03:58;4.50;;;1.90;;
71767;SDS011;59604;52.138;5.446;2023-02-28T14:06:32;4.90;;;2.00;;
71767;SDS011;59604;52.138;5.446;2023-02-28T14:13:59;5.82;;;2.03;;
71767;SDS011;59604;52.138;5.446;2023-02-28T14:16:48;4.97;;;2.30;;
71767;SDS011;59604;52.138;5.446;2023-02-28T14:19:21;4.90;;;1.92;;
71767;SDS011;59604;52.138;5.446;2023-02-28T14:32:15;5.03;;;2.00;;
71767;SDS011;59604;52.138;5.446;2023-02-28T14:34:55;5.22;;;2.17;;
71767;SDS011;59604;52.138;5.446;2023-02-28T14:37:38;5.57;;;2.50;;
71767;SDS011;59604;52.138;5.446;2023-02-28T14:40:12;5.63;;;2.28;;
71767;SDS011;59604;52.138;5.446;2023-02-28T14:42:46;4.47;;;2.13;;
71767;SDS011;59604;52.138;5.446;2023-02-28T14:45:20;4.55;;;2.10;;
71767;SDS011;59604;52.138;5.446;2023-02-28T14:47:49;5.18;;;2.17;;
71767;SDS011;59604;52.138;5.446;2023-02-28T14:50:18;5.05;;;2.20;;
71767;SDS011;59604;52.138;5.446;2023-02-28T14:52:47;5.10;;;2.10;;
71767;SDS011;59604;52.138;5.446;2023-02-28T14:55:17;4.93;;;2.15;;
71767;SDS011;59604;52.138;5.446;2023-02-28T14:57:53;4.43;;;1.90;;
71767;SDS011;59604;52.138;5.446;2023-02-28T15:00:31;5.25;;;2.00;;
71767;SDS011;59604;52.138;5.446;2023-02-28T15:05:55;4.95;;;2.25;;
71767;SDS011;59604;52.138;5.446;2023-02-28T15:08:23;4.78;;;2.00;;
71767;SDS011;59604;52.138;5.446;2023-02-28T15:10:55;5.78;;;2.50;;
71767;SDS011;59604;52.138;5.446;2023-02-28T15:16:09;5.68;;;2.20;;
71767;SDS011;59604;52.138;5.446;2023-02-28T15:18:42;6.72;;;2.33;;
71767;SDS011;59604;52.138;5.446;2023-02-28T15:21:23;5.65;;;2.20;;
71767;SDS011;59604;52.138;5.446;2023-02-28T15:26:24;4.47;;;1.80;;
71767;SDS011;59604;52.138;5.446;2023-02-28T15:29:07;5.30;;;2.10;;
71767;SDS011;59604;52.138;5.446;2023-02-28T15:31:45;6.03;;;2.20;;
71767;SDS011;59604;52.138;5.446;2023-02-28T15:34:34;5.47;;;1.98;;
71767;SDS011;59604;52.138;5.446;2023-02-28T15:39:53;4.82;;;1.90;;
71767;SDS011;59604;52.138;5.446;2023-02-28T15:42:22;5.53;;;1.98;;
71767;SDS011;59604;52.138;5.446;2023-02-28T15:44:49;4.57;;;2.00;;
71767;SDS011;59604;52.138;5.446;2023-02-28T15:49:47;5.22;;;1.85;;
71767;SDS011;59604;52.138;5.446;2023-02-28T15:52:22;4.22;;;1.73;;
71767;SDS011;59604;52.138;5.446;2023-02-28T15:54:56;5.60;;;1.95;;
71767;SDS011;59604;52.138;5.446;2023-02-28T15:57:28;5.43;;;1.83;;
71767;SDS011;59604;52.138;5.446;2023-02-28T15:59:56;5.80;;;1.92;;
71767;SDS011;59604;52.138;5.446;2023-02-28T16:02:33;4.88;;;1.92;;
71767;SDS011;59604;52.138;5.446;2023-02-28T16:05:18;4.45;;;1.80;;
71767;SDS011;59604;52.138;5.446;2023-02-28T16:07:55;6.50;;;2.10;;
71767;SDS011;59604;52.138;5.446;2023-02-28T16:12:52;5.35;;;2.00;;
71767;SDS011;59604;52.138;5.446;2023-02-28T16:15:22;5.15;;;2.00;;
71767;SDS011;59604;52.138;5.446;2023-02-28T16:17:52;5.68;;;1.90;;
71767;SDS011;59604;52.138;5.446;2023-02-28T16:20:25;5.18;;;2.17;;
71767;SDS011;59604;52.138;5.446;2023-02-28T16:22:53;6.50;;;2.38;;
71767;SDS011;59604;52.138;5.446;2023-02-28T16:25:23;5.35;;;2.22;;
71767;SDS011;59604;52.138;5.446;2023-02-28T16:27:54;5.45;;;2.10;;
71767;SDS011;59604;52.138;5.446;2023-02-28T16:30:24;5.38;;;2.28;;
71767;SDS011;59604;52.138;5.446;2023-02-28T16:32:52;5.70;;;2.40;;
71767;SDS011;59604;52.138;5.446;2023-02-28T16:35:21;5.28;;;2.00;;
71767;SDS011;59604;52.138;5.446;2023-02-28T16:37:50;5.13;;;1.98;;
71767;SDS011;59604;52.138;5.446;2023-02-28T16:42:49;5.47;;;2.20;;
71767;SDS011;59604;52.138;5.446;2023-02-28T16:45:23;9.63;;;2.42;;
71767;SDS011;59604;52.138;5.446;2023-02-28T16:47:51;5.53;;;2.33;;
71767;SDS011;59604;52.138;5.446;2023-02-28T16:50:19;5.50;;;2.25;;
71767;SDS011;59604;52.138;5.446;2023-02-28T16:52:48;6.35;;;2.53;;
71767;SDS011;59604;52.138;5.446;2023-02-28T16:55:18;5.03;;;2.33;;
71767;SDS011;59604;52.138;5.446;2023-02-28T16:57:46;6.00;;;2.42;;
71767;SDS011;59604;52.138;5.446;2023-02-28T17:00:19;5.45;;;2.03;;
71767;SDS011;59604;52.138;5.446;2023-02-28T17:02:47;25.77;;;10.35;;
71767;SDS011;59604;52.138;5.446;2023-02-28T17:05:14;17.92;;;7.32;;
71767;SDS011;59604;52.138;5.446;2023-02-28T17:07:41;24.92;;;11.07;;
71767;SDS011;59604;52.138;5.446;2023-02-28T17:10:11;7.88;;;3.60;;
71767;SDS011;59604;52.138;5.446;2023-02-28T17:12:41;32.75;;;18.00;;
71767;SDS011;59604;52.138;5.446;2023-02-28T17:15:12;16.23;;;6.85;;
71767;SDS011;59604;52.138;5.446;2023-02-28T17:17:40;12.65;;;5.95;;
71767;SDS011;59604;52.138;5.446;2023-02-28T17:20:18;42.35;;;15.13;;
71767;SDS011;59604;52.138;5.446;2023-02-28T17:22:55;80.82;;;28.83;;
71767;SDS011;59604;52.138;5.446;2023-02-28T17:25:23;30.08;;;10.60;;
71767;SDS011;59604;52.138;5.446;2023-02-28T17:27:50;50.88;;;19.65;;
71767;SDS011;59604;52.138;5.446;2023-02-28T17:30:27;58.85;;;20.92;;
71767;SDS011;59604;52.138;5.446;2023-02-28T17:32:54;43.00;;;19.65;;
71767;SDS011;59604;52.138;5.446;2023-02-28T17:35:21;19.38;;;9.13;;
71767;SDS011;59604;52.138;5.446;2023-02-28T17:37:49;16.25;;;8.20;;
71767;SDS011;59604;52.138;5.446;2023-02-28T17:40:17;12.40;;;6.35;;
71767;SDS011;59604;52.138;5.446;2023-02-28T17:42:48;13.10;;;5.90;;
71767;SDS011;59604;52.138;5.446;2023-02-28T17:45:18;36.03;;;11.32;;
71767;SDS011;59604;52.138;5.446;2023-02-28T17:47:46;98.25;;;35.17;;
71767;SDS011;59604;52.138;5.446;2023-02-28T17:50:15;134.13;;;44.08;;
71767;SDS011;59604;52.138;5.446;2023-02-28T17:52:45;51.90;;;20.17;;